Time;durP1;ratioP1;P1;durP2;ratioP2;P2;SDS_P1;SDS_P2;PMS_P1;PMS_P2;Temp;Humidity;BMP_temperature;BMP_pressure;BME280_temperature;BME280_humidity;BME280_pressure;Samples;Min_cycle;Max_cycle;Signal;HPM_P1;HPM_P2
2022/08/11 00:01:19;;;;;;;2.53;1.10;;;;;;;20.09;47.65;99198.78;4468695;32;20085;-71
2022/08/11 00:03:55;;;;;;;4.65;1.35;;;;;;;20.08;47.88;99199.81;4468519;32;20116;-71
2022/08/11 00:06:31;;;;;;;2.03;1.00;;;;;;;20.09;47.67;99204.09;4478481;32;20442;-71
2022/08/11 00:09:00;;;;;;;2.53;0.93;;;;;;;20.14;47.56;99199.88;4484530;32;20111;-71
2022/08/11 00:11:33;;;;;;;1.45;1.10;;;;;;;20.07;47.92;99196.31;4484307;32;20137;-71
2022/08/11 00:14:02;;;;;;;2.17;1.50;;;;;;;20.07;48.03;99196.31;4484221;32;20097;-71
2022/08/11 00:16:29;;;;;;;5.45;1.17;;;;;;;20.06;48.12;99200.00;4485743;31;20084;-71
2022/08/11 00:18:57;;;;;;;1.73;1.15;;;;;;;20.05;48.39;99190.38;4485254;31;20092;-71
2022/08/11 00:21:27;;;;;;;3.65;1.30;;;;;;;20.01;48.79;99189.09;4484099;32;20084;-71
2022/08/11 00:24:15;;;;;;;1.52;1.25;;;;;;;20.00;48.63;99182.12;4485312;31;20104;-71
2022/08/11 00:26:48;;;;;;;2.65;1.37;;;;;;;19.91;48.86;99186.75;4484310;32;20104;-71
2022/08/11 00:29:15;;;;;;;3.28;1.30;;;;;;;19.80;49.13;99188.06;4485361;31;20080;-71
2022/08/11 00:31:55;;;;;;;1.90;1.33;;;;;;;19.82;48.96;99187.88;4484036;32;20092;-71
2022/08/11 00:34:26;;;;;;;2.80;1.40;;;;;;;19.77;49.26;99192.87;4485071;32;20112;-72
2022/08/11 00:37:00;;;;;;;2.53;1.52;;;;;;;19.71;49.53;99191.78;4485271;32;20096;-72
2022/08/11 00:39:30;;;;;;;3.87;1.20;;;;;;;19.60;49.72;99193.09;4483845;32;20111;-71
2022/08/11 00:42:09;;;;;;;2.62;1.23;;;;;;;19.59;49.80;99194.09;4485381;32;20121;-71
2022/08/11 00:44:56;;;;;;;2.10;1.08;;;;;;;19.44;50.28;99188.81;4484009;32;20084;-71
2022/08/11 00:47:37;;;;;;;2.12;1.55;;;;;;;19.36;50.64;99193.37;4485590;32;20476;-71
2022/08/11 00:50:40;;;;;;;3.78;1.30;;;;;;;19.24;51.01;99195.66;4483996;32;20080;-71
2022/08/11 00:53:26;;;;;;;1.80;1.30;;;;;;;19.20;51.20;99194.38;4485318;31;20115;-71
2022/08/11 00:56:29;;;;;;;1.42;1.10;;;;;;;19.17;51.41;99194.72;4485228;31;20080;-71
2022/08/11 00:59:11;;;;;;;1.75;1.30;;;;;;;19.21;51.30;99191.53;4483970;32;20092;-72
2022/08/11 01:02:23;;;;;;;4.30;1.40;;;;;;;19.13;51.65;99196.94;4485232;31;20120;-71
2022/08/11 01:05:01;;;;;;;5.20;1.37;;;;;;;19.12;51.70;99192.63;4483542;32;20096;-71
2022/08/11 01:07:38;;;;;;;1.70;1.12;;;;;;;19.13;51.77;99191.63;4469472;32;20433;-72
2022/08/11 01:11:06;;;;;;;2.80;1.30;;;;;;;19.12;51.78;99198.78;4468048;32;20176;-71
2022/08/11 01:13:52;;;;;;;2.33;1.30;;;;;;;19.05;51.98;99197.03;4469504;32;20113;-71
2022/08/11 01:16:22;;;;;;;2.47;1.30;;;;;;;19.14;51.83;99203.91;4469233;32;20099;-72
2022/08/11 01:19:11;;;;;;;1.35;1.20;;;;;;;19.14;51.75;99194.09;4469445;32;20125;-72
2022/08/11 01:22:02;;;;;;;3.12;1.40;;;;;;;19.13;51.86;99191.63;4469112;32;20157;-71
2022/08/11 01:24:54;;;;;;;2.60;1.30;;;;;;;19.09;51.99;99193.84;4469326;32;20398;-72
2022/08/11 01:27:37;;;;;;;3.45;1.10;;;;;;;19.04;52.08;99192.72;4467891;32;20093;-71
2022/08/11 01:30:17;;;;;;;2.30;1.30;;;;;;;18.96;52.26;99191.78;4469375;32;20089;-71
2022/08/11 01:32:58;;;;;;;6.87;1.58;;;;;;;18.92;52.59;99192.34;4467973;32;20088;-72
2022/08/11 01:35:46;;;;;;;1.87;1.00;;;;;;;18.91;52.68;99183.56;4466209;32;20111;-71
2022/08/11 01:38:35;;;;;;;4.30;1.08;;;;;;;18.88;52.62;99186.56;4482718;32;20103;-71
2022/08/11 01:41:21;;;;;;;3.65;1.10;;;;;;;18.97;52.26;99190.78;4484803;31;20151;-71
2022/08/11 01:44:38;;;;;;;3.03;0.90;;;;;;;18.93;52.38;99188.69;4484820;31;20106;-71
2022/08/11 01:47:49;;;;;;;2.42;1.48;;;;;;;18.90;52.70;99184.56;4484522;31;20088;-71
2022/08/11 01:50:47;;;;;;;2.55;1.08;;;;;;;18.81;52.81;99190.91;4483903;32;20111;-71
2022/08/11 01:53:35;;;;;;;2.22;1.30;;;;;;;18.69;53.20;99189.69;4484596;31;20092;-71
2022/08/11 01:57:01;;;;;;;2.30;1.17;;;;;;;18.67;53.22;99189.88;4484914;31;20137;-71
2022/08/11 01:59:33;;;;;;;2.05;1.15;;;;;;;18.56;53.48;99185.84;4407238;32;20116;-72
2022/08/11 02:02:18;;;;;;;12.60;1.67;;;;;;;18.47;53.70;99186.91;4407309;32;20415;-71
2022/08/11 02:05:16;;;;;;;1.75;1.10;;;;;;;18.37;54.26;99186.31;4419564;32;20133;-71
2022/08/11 02:08:02;;;;;;;2.75;0.90;;;;;;;18.24;54.62;99177.13;4392062;32;20094;-71
2022/08/11 02:13:33;;;;;;;1.30;1.12;;;;;;;18.36;54.27;99172.19;4404607;32;20100;-72
2022/08/11 02:16:12;;;;;;;1.33;1.08;;;;;;;18.37;54.11;99175.69;4404441;32;20198;-71
2022/08/11 02:25:17;;;;;;;1.98;1.12;;;;;;;18.39;53.91;99173.69;4402432;32;20090;-71
2022/08/11 02:27:50;;;;;;;1.17;0.82;;;;;;;18.41;53.73;99176.97;4391970;32;20161;-71
2022/08/11 02:30:23;;;;;;;1.52;1.33;;;;;;;18.36;53.88;99174.84;4404556;32;20105;-71
2022/08/11 02:33:22;;;;;;;3.50;1.50;;;;;;;18.32;53.99;99175.38;4391794;32;20090;-71
2022/08/11 02:36:10;;;;;;;2.40;1.05;;;;;;;18.34;53.86;99176.88;4461726;32;20466;-71
2022/08/11 02:39:10;;;;;;;2.25;1.05;;;;;;;18.32;54.00;99178.87;4468180;32;20746;-71
2022/08/11 02:44:55;;;;;;;2.80;0.98;;;;;;;18.24;54.24;99171.81;4467402;32;20504;-72
2022/08/11 02:49:52;;;;;;;1.27;0.90;;;;;;;18.19;54.49;99168.03;4470332;32;20089;-72
2022/08/11 02:50:36;;;;;;;1.50;1.10;;;;;;;18.18;54.46;99164.56;4469611;32;20104;-71
2022/08/11 02:53:19;;;;;;;0.95;0.80;;;;;;;18.16;54.44;99158.59;4469015;32;20782;-72
2022/08/11 02:55:47;;;;;;;1.20;0.77;;;;;;;18.12;54.63;99165.25;4469208;32;20127;-72
2022/08/11 03:01:49;;;;;;;2.40;0.93;;;;;;;18.16;54.51;99171.84;4470118;32;20462;-71
2022/08/11 03:04:21;;;;;;;2.92;1.15;;;;;;;18.09;54.82;99168.25;4468769;32;20101;-72
2022/08/11 03:07:33;;;;;;;2.15;1.15;;;;;;;17.98;55.22;99161.53;4482456;32;20123;-72
2022/08/11 03:10:42;;;;;;;3.20;1.10;;;;;;;17.88;56.11;99168.84;4483428;32;20377;-72
2022/08/11 03:16:44;;;;;;;1.73;1.10;;;;;;;17.74;57.31;99173.06;4421416;32;20102;-71
2022/08/11 03:19:21;;;;;;;2.08;1.20;;;;;;;17.67;57.76;99169.47;4421472;32;20126;-71
2022/08/11 03:22:06;;;;;;;4.45;1.10;;;;;;;17.66;57.95;99173.13;4421092;32;20093;-71
2022/08/11 03:25:07;;;;;;;1.70;1.10;;;;;;;17.63;58.16;99166.34;4421242;32;20117;-71
2022/08/11 03:27:43;;;;;;;;;;;;;;;17.63;58.33;99163.69;4409769;32;20132;-71
2022/08/11 03:30:15;;;;;;;3.72;1.00;;;;;;;17.65;58.41;99167.00;4408764;32;20001;-71
2022/08/11 03:36:27;;;;;;;2.78;1.20;;;;;;;17.75;58.24;99166.78;4405681;32;20102;-71
2022/08/11 03:39:02;;;;;;;2.42;0.98;;;;;;;17.79;58.29;99175.19;4393687;32;20112;-71
2022/08/11 03:41:51;;;;;;;2.67;1.27;;;;;;;17.71;58.52;99170.75;4406133;32;20147;-71
2022/08/11 03:44:40;;;;;;;1.65;1.05;;;;;;;17.77;58.48;99170.06;4405810;32;20736;-71
2022/08/11 03:47:22;;;;;;;1.42;1.10;;;;;;;17.75;58.56;99172.06;4405930;32;20125;-72
2022/08/11 03:50:15;;;;;;;1.60;0.90;;;;;;;17.77;58.58;99163.94;4438100;32;20478;-71
2022/08/11 03:53:07;;;;;;;1.40;1.03;;;;;;;17.82;58.44;99167.75;4468933;32;20097;-71
2022/08/11 03:56:11;;;;;;;2.55;1.40;;;;;;;17.85;58.41;99170.03;4468745;32;20080;-71
2022/08/11 03:58:42;;;;;;;;;;;;;;;17.88;58.41;99171.50;4469233;32;20093;-71
2022/08/11 04:01:43;;;;;;;1.67;0.98;;;;;;;17.95;58.20;99163.72;4468821;32;19995;-71
2022/08/11 04:04:35;;;;;;;1.73;1.20;;;;;;;18.00;58.00;99171.97;4469747;32;20084;-71
2022/08/11 04:07:38;;;;;;;1.62;1.00;;;;;;;18.10;57.91;99164.59;4482878;32;20476;-71
2022/08/11 04:10:27;;;;;;;1.50;0.93;;;;;;;18.15;57.46;99167.53;4485624;31;20127;-71
2022/08/11 04:13:32;;;;;;;2.17;1.25;;;;;;;18.26;57.21;99179.59;4485423;32;20088;-71
2022/08/11 04:16:11;;;;;;;1.92;1.30;;;;;;;18.37;57.06;99183.66;4485421;31;20093;-71
2022/08/11 04:18:51;;;;;;;1.85;1.08;;;;;;;18.40;56.79;99181.47;4485386;32;20143;-71
2022/08/11 04:21:55;;;;;;;2.47;1.12;;;;;;;18.47;56.80;99184.25;4485241;31;20127;-71
2022/08/11 04:24:28;;;;;;;2.62;1.00;;;;;;;18.62;56.54;99176.31;4485401;31;20110;-71
2022/08/11 04:27:27;;;;;;;2.65;1.23;;;;;;;18.70;56.11;99180.72;4485341;31;20513;-71
2022/08/11 04:30:16;;;;;;;1.67;1.10;;;;;;;18.98;55.34;99183.66;4485365;31;20092;-71
2022/08/11 04:33:02;;;;;;;1.48;1.20;;;;;;;19.16;55.01;99191.25;4485184;31;20096;-71
2022/08/11 04:35:53;;;;;;;1.70;0.90;;;;;;;19.25;54.50;99190.16;4484599;31;20080;-72
2022/08/11 04:38:57;;;;;;;1.90;1.15;;;;;;;19.48;54.08;99189.25;4485010;31;20457;-72
2022/08/11 04:43:19;;;;;;;3.77;1.47;;;;;;;19.59;53.37;99180.81;4484989;31;20105;-71
2022/08/11 04:45:04;;;;;;;1.20;1.10;;;;;;;19.74;53.20;99179.97;4483814;32;20754;-71
2022/08/11 05:02:38;;;;;;;2.30;1.12;;;;;;;20.61;50.70;99187.03;4485185;32;20084;-71
2022/08/11 05:05:31;;;;;;;1.67;1.02;;;;;;;20.78;50.17;99184.13;4484990;31;20080;-71
2022/08/11 05:08:52;;;;;;;2.37;1.00;;;;;;;21.00;49.27;99182.19;4483316;32;20578;-71
2022/08/11 05:11:49;;;;;;;3.67;1.10;;;;;;;21.18;48.72;99185.22;4480583;31;20119;-71
2022/08/11 05:34:53;;;;;;;3.15;1.20;;;;;;;22.48;45.26;99201.31;4480630;32;20103;-72
2022/08/11 05:37:31;;;;;;;1.20;1.00;;;;;;;22.54;44.51;99205.00;4484094;32;20190;-71
2022/08/11 05:57:33;;;;;;;4.40;1.27;;;;;;;22.88;43.32;99221.88;4477544;31;20084;-72
2022/08/11 06:00:18;;;;;;;4.82;1.37;;;;;;;23.16;42.85;99208.28;4477185;32;20112;-72
2022/08/11 06:02:50;;;;;;;20.90;2.95;;;;;;;23.31;42.52;99216.09;4477461;32;20104;-72
2022/08/11 06:05:34;;;;;;;5.55;1.02;;;;;;;23.29;42.08;99217.34;4477990;31;20176;-72
2022/08/11 06:08:12;;;;;;;4.30;1.10;;;;;;;23.42;41.38;99211.94;4480123;32;20227;-72
2022/08/11 06:10:43;;;;;;;3.10;1.10;;;;;;;23.58;41.81;99209.84;4482018;32;20100;-72
2022/08/11 06:13:14;;;;;;;8.25;1.05;;;;;;;23.60;40.81;99213.12;4481265;32;20115;-72
2022/08/11 06:15:50;;;;;;;10.82;1.35;;;;;;;23.71;41.33;99209.81;4482693;31;20145;-71
2022/08/11 06:18:18;;;;;;;3.85;1.30;;;;;;;23.90;41.41;99214.25;4482130;32;20111;-72
2022/08/11 06:20:53;;;;;;;1.98;1.20;;;;;;;23.63;41.27;99221.53;4470088;32;20460;-72
2022/08/11 06:23:23;;;;;;;3.53;1.15;;;;;;;23.32;41.48;99217.72;4480333;32;20488;-72
2022/08/11 06:25:52;;;;;;;2.53;1.00;;;;;;;23.26;41.56;99217.75;4481436;32;20119;-72
2022/08/11 06:28:33;;;;;;;2.87;1.20;;;;;;;23.26;41.74;99209.75;4483343;32;20111;-72
2022/08/11 06:31:01;;;;;;;1.05;0.90;;;;;;;23.61;41.03;99220.12;4480186;31;20477;-72
2022/08/11 06:33:33;;;;;;;3.37;1.10;;;;;;;23.55;40.24;99203.06;4477911;32;20085;-72
2022/08/11 06:36:15;;;;;;;7.87;1.10;;;;;;;23.87;40.00;99206.66;4482221;32;20096;-72
2022/08/11 06:38:59;;;;;;;4.35;1.00;;;;;;;24.11;39.70;99206.97;4480713;32;20550;-72
2022/08/11 06:41:34;;;;;;;4.30;1.08;;;;;;;24.39;38.84;99211.09;4485083;31;20076;-72
2022/08/11 06:44:11;;;;;;;4.43;1.20;;;;;;;23.42;39.40;99217.28;4483790;32;20152;-72
2022/08/11 06:46:47;;;;;;;2.60;1.10;;;;;;;23.24;40.39;99215.28;4486329;31;20449;-71
2022/08/11 06:52:06;;;;;;;1.77;0.98;;;;;;;23.74;39.19;99212.88;4475750;32;20096;-72
2022/08/11 06:54:56;;;;;;;2.00;1.00;;;;;;;23.34;40.91;99210.31;4482041;32;20118;-72
2022/08/11 07:00:28;;;;;;;3.78;0.90;;;;;;;23.54;38.10;99218.31;4485920;32;20133;-72
2022/08/11 07:03:11;;;;;;;2.58;0.90;;;;;;;23.60;39.16;99205.91;4483694;32;20088;-71
2022/08/11 07:05:50;;;;;;;1.27;0.80;;;;;;;23.72;37.72;99214.94;4481047;31;20114;-72
2022/08/11 07:17:42;;;;;;;1.25;0.88;;;;;;;23.87;37.33;99206.66;4481975;32;20462;-71
2022/08/11 07:28:57;;;;;;;5.28;1.20;;;;;;;24.43;35.70;99201.59;4482887;32;20153;-72
2022/08/11 07:31:34;;;;;;;4.18;1.00;;;;;;;24.66;35.64;99200.25;4477993;32;20273;-72
2022/08/11 07:34:26;;;;;;;4.47;1.10;;;;;;;24.63;35.97;99201.47;4483174;31;20115;-71
2022/08/11 07:36:58;;;;;;;8.45;1.30;;;;;;;24.63;35.15;99201.47;4480108;31;20108;-72
2022/08/11 07:39:33;;;;;;;3.97;1.20;;;;;;;24.74;35.58;99200.78;4478507;32;20072;-72
2022/08/11 07:42:05;;;;;;;2.97;1.48;;;;;;;24.62;34.43;99200.66;4473301;32;20157;-72
2022/08/11 07:48:10;;;;;;;3.92;1.05;;;;;;;24.79;35.22;99194.78;4481625;31;20160;-72
2022/08/11 07:52:55;;;;;;;5.95;1.08;;;;;;;24.84;35.75;99196.78;4484491;32;20119;-72
2022/08/11 07:55:26;;;;;;;6.12;1.15;;;;;;;25.04;35.14;99191.25;4480674;32;20122;-72
2022/08/11 08:18:07;;;;;;;2.90;0.90;;;;;;;25.67;32.06;99177.56;4470591;32;20092;-72
2022/08/11 08:20:56;;;;;;;10.30;1.00;;;;;;;25.36;31.03;99164.31;4476154;32;20887;-71
2022/08/11 08:23:34;;;;;;;5.12;1.10;;;;;;;25.65;31.64;99171.59;4477699;32;20590;-72
2022/08/11 08:26:57;;;;;;;3.85;0.90;;;;;;;25.96;30.58;99171.63;4482025;32;20104;-72
2022/08/11 08:31:47;;;;;;;20.95;1.67;;;;;;;25.86;32.40;99172.19;4479974;32;20123;-72
2022/08/11 08:34:17;;;;;;;5.15;1.02;;;;;;;25.77;31.24;99169.00;4481812;32;20092;-71
2022/08/11 08:36:47;;;;;;;2.55;0.90;;;;;;;25.80;32.11;99171.22;4471580;32;20124;-72
2022/08/11 08:39:19;;;;;;;3.62;1.40;;;;;;;25.68;32.49;99171.16;4481985;32;20092;-72
2022/08/11 08:41:53;;;;;;;2.67;1.30;;;;;;;25.35;33.13;99170.75;4481700;32;20084;-72
2022/08/11 08:44:21;;;;;;;5.93;1.27;;;;;;;25.11;33.63;99171.38;4482562;31;20157;-72
2022/08/11 08:47:13;;;;;;;4.53;1.02;;;;;;;25.08;33.79;99161.09;4483703;32;20495;-72
2022/08/11 08:49:47;;;;;;;2.40;1.30;;;;;;;25.04;33.52;99170.63;4483463;31;20100;-72
2022/08/11 08:52:21;;;;;;;2.47;1.08;;;;;;;24.92;34.02;99175.91;4490349;31;20087;-72
2022/08/11 08:55:02;;;;;;;1.42;1.00;;;;;;;24.90;34.39;99169.09;4484252;32;20092;-72
2022/08/11 08:57:32;;;;;;;1.90;1.00;;;;;;;25.05;34.64;99172.25;4477969;32;20621;-72
2022/08/11 09:00:06;;;;;;;2.25;1.02;;;;;;;25.18;34.44;99168.63;4471862;31;20147;-72
2022/08/11 09:02:42;;;;;;;2.12;0.98;;;;;;;25.07;33.63;99169.34;4482682;32;20089;-72
2022/08/11 09:05:10;;;;;;;1.67;1.05;;;;;;;24.91;33.65;99165.41;4483247;32;20108;-72
2022/08/11 09:07:38;;;;;;;2.42;1.00;;;;;;;24.86;33.54;99162.53;4483608;31;20359;-72
2022/08/11 09:10:10;;;;;;;1.37;1.05;;;;;;;25.26;33.47;99162.97;4475310;32;20505;-72
2022/08/11 09:12:40;;;;;;;1.20;1.10;;;;;;;25.23;33.48;99162.59;4478432;32;20150;-72
2022/08/11 09:15:10;;;;;;;0.98;0.82;;;;;;;24.78;33.35;99158.28;4483687;31;20168;-72
2022/08/11 09:17:39;;;;;;;4.93;1.02;;;;;;;24.96;33.26;99149.47;4472584;32;79763;-71
2022/08/11 09:20:16;;;;;;;3.25;0.90;;;;;;;25.31;33.10;99148.91;4479111;32;20096;-71
2022/08/11 09:28:44;;;;;;;6.00;0.93;;;;;;;25.91;31.16;99152.72;4484599;31;20127;-72
2022/08/11 09:31:13;;;;;;;2.30;0.95;;;;;;;26.05;31.92;99145.31;4483572;31;20080;-71
2022/08/11 09:33:42;;;;;;;2.25;1.17;;;;;;;26.14;33.51;99141.25;4482367;31;20100;-72
2022/08/11 09:41:45;;;;;;;4.00;1.10;;;;;;;26.21;31.84;99136.59;4466900;32;20606;-72
2022/08/11 09:44:47;;;;;;;5.90;1.10;;;;;;;26.56;31.26;99133.13;4474821;32;20584;-71
2022/08/11 09:47:21;;;;;;;4.75;0.93;;;;;;;26.54;29.93;99135.22;4474260;32;20131;-72
2022/08/11 09:49:51;;;;;;;2.15;0.90;;;;;;;26.65;29.64;99137.09;4485932;31;20108;-71
2022/08/11 09:52:19;;;;;;;1.62;1.00;;;;;;;26.83;29.59;99125.47;4470888;32;20119;-72
2022/08/11 09:54:47;;;;;;;1.85;1.00;;;;;;;26.57;29.12;99134.75;4475009;32;20111;-71
2022/08/11 10:00:10;;;;;;;2.67;1.05;;;;;;;25.68;29.74;99122.84;4468895;32;20089;-72
2022/08/11 10:02:47;;;;;;;3.30;0.90;;;;;;;25.72;29.42;99117.84;4476557;31;20101;-72
2022/08/11 10:08:08;;;;;;;3.97;1.10;;;;;;;26.87;28.67;99106.97;4479227;32;20131;-71
2022/08/11 10:10:37;;;;;;;1.33;0.88;;;;;;;27.03;28.55;99105.44;4467600;32;20390;-72
2022/08/11 10:13:07;;;;;;;0.98;0.82;;;;;;;27.45;27.99;99107.94;4477482;32;20469;-72
2022/08/11 10:15:57;;;;;;;5.22;1.02;;;;;;;27.33;27.14;99107.97;4482169;31;20607;-71
2022/08/11 10:18:41;;;;;;;1.65;0.85;;;;;;;26.96;28.69;99110.13;4478876;32;20087;-72
2022/08/11 10:21:16;;;;;;;0.82;0.73;;;;;;;26.49;29.58;99111.75;4469139;32;20158;-73
2022/08/11 10:35:27;;;;;;;2.58;1.12;;;;;;;27.38;28.74;99100.00;4475077;32;20845;-73
2022/08/11 10:37:55;;;;;;;1.62;1.00;;;;;;;28.11;26.72;99078.69;4470894;32;20174;-74
2022/08/11 10:40:34;;;;;;;1.62;1.25;;;;;;;28.59;26.35;99078.34;4479493;32;20111;-73
2022/08/11 10:43:04;;;;;;;1.73;0.80;;;;;;;28.83;25.88;99084.38;4479787;31;20135;-71
2022/08/11 10:48:24;;;;;;;2.42;1.05;;;;;;;27.91;27.48;99084.53;4477714;32;20109;-74
2022/08/11 10:59:15;;;;;;;6.20;0.95;;;;;;;26.58;27.73;99081.84;4483370;32;20088;-75
2022/08/11 11:01:44;;;;;;;2.25;0.90;;;;;;;26.73;27.15;99082.22;4483582;31;20093;-75
2022/08/11 11:04:16;;;;;;;2.83;0.80;;;;;;;27.13;27.36;99073.34;4483196;31;20165;-75
2022/08/11 11:06:44;;;;;;;2.80;1.15;;;;;;;27.39;26.80;99071.19;4484194;31;20100;-74
2022/08/11 11:09:21;;;;;;;3.12;1.10;;;;;;;27.80;26.71;99066.59;4485871;31;20088;-75
2022/08/11 11:20:22;;;;;;;1.20;0.75;;;;;;;28.81;24.88;99049.56;4485758;31;20102;-73
2022/08/11 11:23:18;;;;;;;0.95;0.90;;;;;;;28.57;25.01;99048.97;4484669;32;20119;-74
2022/08/11 11:26:09;;;;;;;2.87;0.73;;;;;;;28.24;22.12;99053.31;4484859;32;20093;-74
2022/08/11 11:28:42;;;;;;;2.12;0.80;;;;;;;27.59;22.47;99044.69;4485857;31;20089;-72
2022/08/11 11:31:25;;;;;;;2.60;0.88;;;;;;;27.60;22.60;99037.41;4485904;31;20110;-72
2022/08/11 11:34:30;;;;;;;2.58;0.88;;;;;;;27.55;22.20;99038.16;4485937;31;20137;-72
2022/08/11 11:36:59;;;;;;;1.45;1.00;;;;;;;27.70;22.51;99034.09;4478528;32;20112;-72
2022/08/11 11:39:29;;;;;;;3.80;1.05;;;;;;;27.93;23.22;99033.13;4484113;32;20096;-73
2022/08/11 11:42:04;;;;;;;0.80;0.70;;;;;;;28.35;22.63;99029.22;4485407;31;20084;-73
2022/08/11 11:44:32;;;;;;;6.12;0.98;;;;;;;28.14;23.59;99029.72;4485318;31;20084;-73
2022/08/11 11:47:00;;;;;;;1.67;0.70;;;;;;;28.58;23.91;99025.50;4485573;31;20093;-75
2022/08/11 11:49:28;;;;;;;0.70;0.65;;;;;;;28.76;23.55;99019.84;4484447;32;20108;-75
2022/08/11 11:51:57;;;;;;;2.00;0.80;;;;;;;28.88;23.28;99017.03;4484353;32;20161;-73
2022/08/11 11:54:26;;;;;;;1.40;1.23;;;;;;;28.64;23.73;99011.88;4484297;32;20084;-73
2022/08/11 11:56:55;;;;;;;1.23;0.60;;;;;;;28.15;24.09;99017.91;4484155;32;20113;-73
2022/08/11 12:02:13;;;;;;;1.30;0.77;;;;;;;28.26;23.66;99001.87;4485436;31;20076;-74
2022/08/11 12:04:43;;;;;;;1.35;0.95;;;;;;;28.19;23.67;98998.53;4484201;32;20096;-73
2022/08/11 12:09:57;;;;;;;0.90;0.80;;;;;;;29.11;23.45;98994.34;4484258;32;20157;-75
2022/08/11 12:15:11;;;;;;;1.55;0.98;;;;;;;29.45;22.91;98990.66;4484223;32;20092;-74
2022/08/11 12:17:38;;;;;;;1.55;0.80;;;;;;;29.28;22.48;98990.78;4483767;32;20088;-73
2022/08/11 12:20:06;;;;;;;2.40;0.80;;;;;;;29.28;22.88;98988.91;4484830;32;20458;-73
2022/08/11 12:28:49;;;;;;;1.62;1.52;;;;;;;29.29;22.13;98977.03;4484265;32;20131;-75
2022/08/11 12:31:16;;;;;;;1.98;0.80;;;;;;;29.25;22.72;98975.94;4485248;31;20097;-75
2022/08/11 12:33:44;;;;;;;20.88;2.25;;;;;;;29.13;22.83;98976.03;4483995;32;20104;-74
2022/08/11 12:36:14;;;;;;;0.70;0.70;;;;;;;29.48;23.16;98976.66;4483639;32;20109;-73
2022/08/11 12:38:44;;;;;;;4.75;1.17;;;;;;;30.24;21.75;98973.75;4485199;32;20080;-74
2022/08/11 12:45:26;;;;;;;2.05;0.88;;;;;;;30.31;21.36;98970.00;4485132;31;20108;-73
2022/08/11 12:47:08;;;;;;;1.48;0.70;;;;;;;29.07;22.59;98960.88;4484039;32;20083;-74
2022/08/11 12:52:26;;;;;;;3.70;0.70;;;;;;;28.70;23.44;98966.13;4483950;32;20122;-75
2022/08/11 12:55:08;;;;;;;1.00;0.90;;;;;;;28.20;24.21;98968.66;4466110;32;20092;-73
2022/08/11 13:06:06;;;;;;;3.42;0.80;;;;;;;29.00;23.44;98952.97;4476015;32;20522;-74
2022/08/11 13:08:35;;;;;;;1.77;1.20;;;;;;;28.87;23.19;98950.66;4484104;32;20116;-75
2022/08/11 13:13:51;;;;;;;1.27;0.90;;;;;;;28.35;24.17;98949.19;4484174;32;20084;-74
2022/08/11 13:16:27;;;;;;;1.27;0.68;;;;;;;28.99;24.08;98947.81;4485027;31;20449;-75
2022/08/11 13:18:56;;;;;;;1.27;0.80;;;;;;;30.01;23.33;98936.31;4484057;32;20081;-73
2022/08/11 13:21:25;;;;;;;1.17;0.80;;;;;;;30.18;22.29;98947.78;4483465;32;20097;-72
2022/08/11 13:23:53;;;;;;;2.83;0.85;;;;;;;29.49;23.35;98940.50;4484002;32;20100;-73
2022/08/11 13:26:30;;;;;;;0.82;0.80;;;;;;;29.07;23.39;98943.84;4483783;32;20104;-73
2022/08/11 13:29:21;;;;;;;1.42;0.90;;;;;;;28.78;23.58;98936.00;4484839;31;20094;-73
2022/08/11 13:31:49;;;;;;;1.23;0.93;;;;;;;28.52;23.58;98937.56;4485044;31;20108;-73
2022/08/11 13:34:17;;;;;;;2.05;0.80;;;;;;;28.79;24.02;98930.34;4483410;32;20100;-73
2022/08/11 13:36:50;;;;;;;0.88;0.70;;;;;;;28.84;23.70;98926.91;4484499;31;20100;-73
2022/08/11 13:39:20;;;;;;;3.03;0.80;;;;;;;28.99;23.99;98913.59;4484031;32;20101;-73
2022/08/11 13:41:52;;;;;;;1.40;0.70;;;;;;;29.02;23.46;98917.66;4483410;32;20084;-73
2022/08/11 13:44:20;;;;;;;1.77;0.70;;;;;;;29.10;23.46;98910.97;4483637;32;20120;-73
2022/08/11 13:47:02;;;;;;;5.65;1.00;;;;;;;29.43;23.46;98909.13;4484646;31;20096;-73
2022/08/11 13:49:32;;;;;;;2.72;1.00;;;;;;;28.88;25.19;98905.66;4483480;32;20564;-73
2022/08/11 13:52:00;;;;;;;2.50;0.80;;;;;;;28.54;25.52;98909.28;4483089;32;20120;-72
2022/08/11 13:54:30;;;;;;;3.08;0.90;;;;;;;28.69;25.15;98908.66;4483542;32;20165;-73
2022/08/11 13:57:04;;;;;;;3.62;1.10;;;;;;;28.14;24.76;98910.41;4483230;32;20809;-73
2022/08/11 13:59:39;;;;;;;4.00;0.90;;;;;;;27.86;25.37;98908.63;4484836;32;20080;-73
2022/08/11 14:02:23;;;;;;;1.92;0.68;;;;;;;27.71;25.79;98904.66;4484649;32;20124;-73
2022/08/11 14:05:16;;;;;;;1.40;0.73;;;;;;;27.91;25.67;98906.00;4484431;31;20521;-73
2022/08/11 14:07:57;;;;;;;2.40;0.85;;;;;;;27.87;25.51;98894.09;4468740;32;20561;-73
2022/08/11 14:10:30;;;;;;;3.33;0.80;;;;;;;28.02;25.37;98897.03;4468656;32;20085;-73
2022/08/11 14:15:52;;;;;;;;;;;;;;;27.20;28.69;98914.56;4469008;32;20142;-72
2022/08/11 14:18:24;;;;;;;2.65;0.82;;;;;;;27.30;28.95;98901.28;4468636;32;19984;-73
2022/08/11 14:23:43;;;;;;;3.45;1.00;;;;;;;27.15;28.68;98903.72;4467604;32;20451;-73
2022/08/11 14:26:27;;;;;;;0.93;0.70;;;;;;;27.18;28.59;98903.22;4467260;32;20134;-73
2022/08/11 14:29:06;;;;;;;3.25;0.90;;;;;;;27.29;28.64;98909.59;4468572;32;20085;-73
2022/08/11 14:31:37;;;;;;;1.50;0.90;;;;;;;27.20;28.81;98898.41;4467235;32;20107;-73
2022/08/11 14:34:09;;;;;;;1.15;0.90;;;;;;;27.16;28.76;98900.78;4467182;32;20124;-73
2022/08/11 14:36:42;;;;;;;2.78;0.80;;;;;;;27.39;29.12;98904.37;4466883;32;20169;-73
2022/08/11 14:39:16;;;;;;;2.55;0.70;;;;;;;27.41;28.79;98903.09;4467181;32;20085;-73
2022/08/11 14:47:33;;;;;;;1.30;0.82;;;;;;;27.67;29.25;98897.31;4469243;32;20116;-72
2022/08/11 14:50:02;;;;;;;1.12;0.60;;;;;;;27.63;29.28;98894.28;4469258;32;20101;-73
2022/08/11 14:52:51;;;;;;;3.28;0.77;;;;;;;27.29;29.43;98904.22;4470237;32;20490;-72
2022/08/11 14:58:09;;;;;;;1.90;0.70;;;;;;;26.56;30.03;98899.38;4469043;32;20207;-73
2022/08/11 15:00:37;;;;;;;1.10;0.70;;;;;;;26.41;30.39;98891.81;4469084;32;20193;-73
2022/08/11 15:03:10;;;;;;;18.77;2.08;;;;;;;26.45;30.40;98901.03;4468545;32;20107;-72
2022/08/11 15:05:47;;;;;;;1.08;0.70;;;;;;;26.51;30.42;98896.56;4473635;32;20112;-72
2022/08/11 15:14:05;;;;;;;1.65;0.77;;;;;;;26.46;30.12;98891.91;4484543;32;20080;-72
2022/08/11 15:19:20;;;;;;;1.85;0.55;;;;;;;26.41;30.07;98891.00;4482227;32;20528;-72
2022/08/11 15:24:35;;;;;;;3.12;0.70;;;;;;;26.38;30.08;98890.41;4483192;32;20525;-72
2022/08/11 15:38:41;;;;;;;2.00;1.00;;;;;;;26.65;29.08;98889.88;4468835;32;20455;-72
2022/08/11 15:46:46;;;;;;;22.80;6.05;;;;;;;26.35;29.34;98890.06;4469014;32;20154;-72
2022/08/11 15:49:15;;;;;;;67.55;22.50;;;;;;;26.17;28.90;98883.00;4469909;32;20112;-72
2022/08/11 15:52:05;;;;;;;12.00;3.75;;;;;;;26.08;28.85;98882.53;4469993;32;20084;-72
2022/08/11 15:54:34;;;;;;;26.60;7.90;;;;;;;25.88;29.11;98882.88;4467674;32;20148;-72
2022/08/11 15:57:04;;;;;;;3.78;1.30;;;;;;;26.01;28.90;98885.34;4470205;32;20401;-72
2022/08/11 16:04:55;;;;;;;7.62;3.05;;;;;;;25.98;28.92;98884.97;4468284;32;20084;-72
2022/08/11 16:07:26;;;;;;;1.02;0.90;;;;;;;25.83;29.00;98883.59;4485003;32;20403;-72
2022/08/11 16:10:09;;;;;;;2.87;0.70;;;;;;;25.82;29.00;98878.44;4484201;32;20470;-72
2022/08/11 16:18:40;;;;;;;21.70;6.78;;;;;;;25.70;28.83;98873.06;4484325;32;20175;-72
2022/08/11 16:21:13;;;;;;;28.70;7.78;;;;;;;25.65;28.79;98865.72;4484155;32;20217;-72
2022/08/11 16:24:04;;;;;;;4.05;1.40;;;;;;;25.47;28.89;98873.91;4485334;31;20089;-72
2022/08/11 16:26:32;;;;;;;84.20;28.50;;;;;;;25.43;28.60;98868.16;4484103;32;20115;-72
2022/08/11 16:29:21;;;;;;;5.72;2.47;;;;;;;25.34;28.63;98874.91;4484098;32;20732;-72
2022/08/11 16:32:15;;;;;;;5.43;2.55;;;;;;;25.32;29.08;98874.34;4484194;32;20088;-72
2022/08/11 16:40:11;;;;;;;14.85;4.68;;;;;;;25.20;29.79;98866.22;4485506;31;20099;-72
2022/08/11 16:48:27;;;;;;;11.82;4.68;;;;;;;25.08;30.31;98868.06;4485521;31;20149;-72
2022/08/11 16:51:05;;;;;;;10.52;4.10;;;;;;;25.01;30.53;98870.03;4485348;31;20103;-72
2022/08/11 16:53:32;;;;;;;10.25;5.30;;;;;;;24.92;30.58;98872.22;4483861;32;20493;-72
2022/08/11 16:56:24;;;;;;;7.65;2.08;;;;;;;24.84;30.74;98862.62;4485499;31;20100;-72
2022/08/11 16:59:14;;;;;;;4.05;2.10;;;;;;;24.69;30.99;98872.94;4484180;32;20170;-72
2022/08/11 17:01:46;;;;;;;2.20;0.95;;;;;;;24.66;31.23;98870.72;4484189;32;20107;-72